createdAt,value
2019-02-10T00:00:12.398Z,1000.24
2019-02-10T00:01:22.847Z,1000.29
2019-02-10T00:08:44.606Z,1000.23
2019-02-10T00:09:54.699Z,1000.23
2019-02-10T00:11:05.475Z,1000.24
2019-02-10T00:12:15.605Z,1000.17
2019-02-10T00:13:25.689Z,1000.17
2019-02-10T00:14:35.844Z,1000.14
2019-02-10T00:15:45.897Z,1000.05
2019-02-10T00:16:55.990Z,1000.06
2019-02-10T00:18:06.106Z,1000.1
2019-02-10T00:19:16.049Z,999.97
2019-02-10T00:20:25.593Z,999.92
2019-02-10T00:21:35.401Z,999.9
2019-02-10T00:22:45.446Z,1000.03
2019-02-10T00:23:55.510Z,1000.03
2019-02-10T00:25:05.375Z,999.95
2019-02-10T00:26:15.432Z,999.98
2019-02-10T00:27:25.500Z,1000.03
2019-02-10T00:28:35.581Z,1000.07
2019-02-10T00:29:45.393Z,1000.09
2019-02-10T00:30:55.462Z,1000.07
2019-02-10T00:32:05.631Z,1000.05
2019-02-10T00:33:15.690Z,1000.02
2019-02-10T00:34:25.767Z,1000.02
2019-02-10T00:35:35.825Z,1000.1
2019-02-10T00:36:45.894Z,1000.04
2019-02-10T00:37:55.962Z,1000.09
2019-02-10T00:39:05.847Z,1000.12
2019-02-10T00:40:15.665Z,1000.21
2019-02-10T00:41:25.515Z,1000.12
2019-02-10T00:42:35.327Z,1000.07
2019-02-10T00:43:45.402Z,1000.17
2019-02-10T00:44:55.447Z,1000.25
2019-02-10T00:46:05.239Z,1000.23
2019-02-10T00:47:15.290Z,1000.15
2019-02-10T00:48:25.373Z,1000.2
2019-02-10T00:49:35.437Z,1000.19
2019-02-10T00:50:45.494Z,1000.26
2019-02-10T00:51:55.275Z,1000.27
2019-02-10T00:53:05.095Z,1000.26
2019-02-10T00:54:14.955Z,1000.24
2019-02-10T00:55:25.018Z,1000.18
2019-02-10T00:56:34.816Z,1000.15
2019-02-10T00:57:44.869Z,1000.19
2019-02-10T00:58:54.645Z,1000.21
2019-02-10T01:00:05.166Z,1000.25
2019-02-10T01:01:15.817Z,1000.17
2019-02-10T01:02:26.320Z,1000.12
2019-02-10T01:03:36.395Z,1000.11
2019-02-10T01:04:46.202Z,1000.15
2019-02-10T01:05:56.264Z,1000.13
2019-02-10T01:07:06.337Z,1000.14
2019-02-10T01:08:16.132Z,1000.13
2019-02-10T01:09:26.207Z,1000.19
2019-02-10T01:10:36.003Z,1000.26
2019-02-10T01:11:46.062Z,1000.24
2019-02-10T01:12:55.888Z,1000.21
2019-02-10T01:14:05.949Z,1000.22
2019-02-10T01:15:15.749Z,1000.2
2019-02-10T01:16:26.022Z,1000.19
2019-02-10T01:17:35.827Z,1000.17
2019-02-10T01:18:45.887Z,1000.16
2019-02-10T01:19:55.679Z,1000.11
2019-02-10T01:21:05.243Z,1000.14
2019-02-10T01:22:15.389Z,1000.18
2019-02-10T01:23:25.504Z,1000.16
2019-02-10T01:24:35.555Z,1000.14
2019-02-10T01:25:44.851Z,1000.11
2019-02-10T01:26:54.896Z,1000.09
2019-02-10T01:28:04.945Z,1000.11
2019-02-10T01:29:14.799Z,1000.09
2019-02-10T01:30:24.859Z,1000.08
2019-02-10T01:31:34.906Z,1000.09
2019-02-10T01:32:44.949Z,1000.05
2019-02-10T01:33:54.992Z,1000.06
2019-02-10T01:35:05.039Z,1000.1
2019-02-10T01:36:15.099Z,1000.03
2019-02-10T01:37:25.142Z,1000.02
2019-02-10T01:38:34.922Z,999.98
2019-02-10T01:39:44.988Z,999.93
2019-02-10T01:40:55.046Z,999.91
2019-02-10T01:42:05.087Z,999.95
2019-02-10T01:43:15.154Z,999.93
2019-02-10T01:44:25.194Z,999.88
2019-02-10T01:45:35.251Z,999.94
2019-02-10T01:46:45.285Z,999.91
2019-02-10T01:47:55.349Z,999.9
2019-02-10T01:49:04.904Z,999.86
2019-02-10T01:50:14.963Z,999.82
2019-02-10T01:51:25.010Z,999.84
2019-02-10T01:52:35.121Z,999.79
2019-02-10T01:53:44.913Z,999.74
2019-02-10T01:54:54.963Z,999.7
2019-02-10T01:56:05.007Z,999.71
2019-02-10T01:57:14.818Z,999.69
2019-02-10T01:58:24.876Z,999.62
2019-02-10T01:59:34.921Z,999.63
2019-02-10T02:00:44.974Z,999.61
2019-02-10T02:01:54.786Z,999.57
2019-02-10T02:03:04.328Z,999.56
2019-02-10T02:04:14.125Z,999.57
2019-02-10T02:05:23.913Z,999.57
2019-02-10T02:06:33.965Z,999.55
2019-02-10T02:07:44.035Z,999.52
2019-02-10T02:08:54.108Z,999.49
2019-02-10T02:10:04.208Z,999.47
2019-02-10T02:11:14.278Z,999.51
2019-02-10T02:12:24.331Z,999.48
2019-02-10T02:13:34.153Z,999.46
2019-02-10T02:14:43.744Z,999.45
2019-02-10T02:15:53.778Z,999.4
2019-02-10T02:17:03.982Z,999.4
2019-02-10T02:18:14.046Z,999.37
2019-02-10T02:19:24.093Z,999.37
2019-02-10T02:20:33.644Z,999.38
2019-02-10T02:21:43.496Z,999.35
2019-02-10T02:22:53.286Z,999.4
2019-02-10T02:24:03.224Z,999.35
2019-02-10T02:25:12.837Z,999.35
2019-02-10T02:26:22.919Z,999.31
2019-02-10T02:27:32.739Z,999.29
2019-02-10T02:28:42.540Z,999.25
2019-02-10T02:29:52.338Z,999.21
2019-02-10T02:31:02.730Z,999.23
2019-02-10T02:32:12.862Z,999.23
2019-02-10T02:33:22.657Z,999.26
2019-02-10T02:34:32.468Z,999.31
2019-02-10T02:35:42.527Z,999.29
2019-02-10T02:36:52.365Z,999.27
2019-02-10T02:38:10.878Z,999.28
2019-02-10T02:39:20.976Z,999.33
2019-02-10T02:40:31.017Z,999.28
2019-02-10T02:41:41.120Z,999.29
2019-02-10T02:42:51.200Z,999.31
2019-02-10T02:44:03.316Z,999.32
2019-02-10T02:45:13.143Z,999.29
2019-02-10T02:46:23.225Z,999.28
2019-02-10T02:47:33.038Z,999.29
2019-02-10T02:48:42.835Z,999.25
2019-02-10T02:49:52.887Z,999.18
2019-02-10T02:51:04.124Z,999.18
2019-02-10T02:52:13.934Z,999.2
2019-02-10T02:53:24.012Z,999.12
2019-02-10T02:54:33.798Z,999.12
2019-02-10T02:55:43.847Z,999.11
2019-02-10T02:56:53.666Z,999.09
2019-02-10T02:58:03.723Z,999.07
2019-02-10T02:59:13.563Z,999.08
2019-02-10T03:00:23.517Z,999.06
2019-02-10T03:01:33.630Z,999.08
2019-02-10T03:34:06.935Z,998.83
2019-02-10T03:35:17.000Z,998.79
2019-02-10T03:36:27.045Z,998.83
2019-02-10T03:37:36.608Z,998.76
2019-02-10T03:38:46.447Z,998.75
2019-02-10T03:39:56.540Z,998.79
2019-02-10T03:41:07.792Z,998.73
2019-02-10T03:42:17.843Z,998.72
2019-02-10T03:43:27.652Z,998.76
2019-02-10T03:44:37.719Z,998.72
2019-02-10T03:45:47.793Z,998.67
2019-02-10T03:46:57.850Z,998.67
2019-02-10T03:48:10.027Z,998.68
2019-02-10T03:49:20.074Z,998.71
2019-02-10T03:50:30.185Z,998.74
2019-02-10T03:51:40.248Z,998.79
2019-02-10T03:52:50.309Z,998.8
2019-02-10T03:54:02.403Z,998.78
2019-02-10T03:55:12.214Z,998.79
2019-02-10T03:56:22.294Z,998.78
2019-02-10T03:57:32.139Z,998.79
2019-02-10T03:58:41.944Z,998.8
2019-02-10T03:59:52.064Z,998.78
2019-02-10T04:01:01.914Z,998.74
2019-02-10T04:02:11.477Z,998.77
2019-02-10T04:03:21.594Z,998.74
2019-02-10T04:04:31.640Z,998.75
2019-02-10T04:05:41.445Z,998.76
2019-02-10T04:06:51.526Z,998.76
2019-02-10T04:08:01.593Z,998.73
2019-02-10T04:09:11.628Z,998.76
2019-02-10T04:10:21.426Z,998.79
2019-02-10T04:11:31.476Z,998.81
2019-02-10T04:12:41.589Z,998.74
2019-02-10T04:13:51.649Z,998.78
2019-02-10T04:15:01.701Z,998.78
2019-02-10T04:16:11.755Z,998.76
2019-02-10T04:17:21.811Z,998.7
2019-02-10T04:18:31.888Z,998.68
2019-02-10T04:19:41.937Z,998.63
2019-02-10T04:20:52.019Z,998.58
2019-02-10T04:22:02.122Z,998.63
2019-02-10T04:23:11.669Z,998.62
2019-02-10T04:24:21.461Z,998.57
2019-02-10T04:25:31.515Z,998.53
2019-02-10T04:26:41.323Z,998.52
2019-02-10T04:27:50.917Z,998.42
2019-02-10T04:29:00.983Z,998.43
2019-02-10T04:30:11.155Z,998.4
2019-02-10T04:31:21.218Z,998.39
2019-02-10T04:32:31.308Z,998.43
2019-02-10T04:33:41.366Z,998.47
2019-02-10T04:34:50.901Z,998.49
2019-02-10T04:36:00.967Z,998.51
2019-02-10T04:37:11.086Z,998.47
2019-02-10T04:38:20.879Z,998.5
2019-02-10T04:39:30.917Z,998.44
2019-02-10T04:40:40.715Z,998.44
2019-02-10T04:41:50.788Z,998.39
2019-02-10T04:43:00.905Z,998.31
2019-02-10T04:44:10.679Z,998.27
2019-02-10T04:45:20.461Z,998.22
2019-02-10T04:46:30.527Z,998.21
2019-02-10T04:47:40.316Z,998.18
2019-02-10T04:48:50.103Z,998.16
2019-02-10T04:50:01.251Z,998.16
2019-02-10T04:51:11.316Z,998.17
2019-02-10T04:52:21.359Z,998.21
2019-02-10T04:53:31.416Z,998.19
2019-02-10T04:54:41.217Z,998.19
2019-02-10T04:55:51.016Z,998.15
2019-02-10T04:57:01.067Z,998.18
2019-02-10T04:58:10.881Z,998.13
2019-02-10T04:59:20.922Z,998.11
2019-02-10T05:00:31.050Z,998.13
2019-02-10T05:01:41.125Z,998.12
2019-02-10T05:02:51.200Z,998.1
2019-02-10T05:04:01.030Z,998.06
2019-02-10T05:05:11.086Z,998.09
2019-02-10T05:06:20.897Z,998.02
2019-02-10T05:07:30.949Z,998.02
2019-02-10T05:08:40.768Z,998
2019-02-10T05:09:50.597Z,997.97
2019-02-10T05:11:03.462Z,997.99
2019-02-10T05:12:13.371Z,997.99
2019-02-10T05:13:23.183Z,997.98
2019-02-10T05:14:33.258Z,997.97
2019-02-10T05:15:43.054Z,997.98
2019-02-10T05:16:53.142Z,997.98
2019-02-10T05:18:03.258Z,998
2019-02-10T05:19:13.087Z,997.98
2019-02-10T05:20:23.138Z,997.99
2019-02-10T05:21:33.183Z,997.93
2019-02-10T05:22:42.984Z,997.92
2019-02-10T05:23:52.803Z,997.94
2019-02-10T05:25:10.768Z,997.91
2019-02-10T05:26:20.578Z,997.9
2019-02-10T05:27:30.406Z,997.92
2019-02-10T05:28:40.495Z,997.9
2019-02-10T05:29:50.545Z,997.9
2019-02-10T05:31:00.698Z,997.89
2019-02-10T05:32:10.760Z,997.87
2019-02-10T05:33:20.817Z,997.85
2019-02-10T05:34:30.892Z,997.89
2019-02-10T05:35:40.941Z,997.89
2019-02-10T05:36:50.985Z,997.88
2019-02-10T05:38:04.577Z,997.85
2019-02-10T05:39:14.734Z,997.82
2019-02-10T05:40:24.793Z,997.79
2019-02-10T05:41:34.639Z,997.78
2019-02-10T05:42:44.695Z,997.71
2019-02-10T05:43:54.246Z,997.72
2019-02-10T05:45:04.089Z,997.69
2019-02-10T05:46:13.882Z,997.69
2019-02-10T05:47:23.929Z,997.62
2019-02-10T05:48:34.021Z,997.6
2019-02-10T05:49:44.084Z,997.62
2019-02-10T05:50:53.908Z,997.62
2019-02-10T05:52:04.022Z,997.66
2019-02-10T05:53:14.083Z,997.69
2019-02-10T05:54:24.130Z,997.68
2019-02-10T05:55:34.203Z,997.67
2019-02-10T05:56:44.279Z,997.72
2019-02-10T05:57:54.332Z,997.74
2019-02-10T05:59:04.789Z,997.73
2019-02-10T06:00:14.784Z,997.69
2019-02-10T06:01:25.017Z,997.69
2019-02-10T06:02:35.054Z,997.65
2019-02-10T06:03:45.123Z,997.65
2019-02-10T06:04:55.173Z,997.67
2019-02-10T06:06:05.216Z,997.62
2019-02-10T06:07:16.564Z,997.65
2019-02-10T06:08:26.265Z,997.59
2019-02-10T06:09:36.323Z,997.63
2019-02-10T06:10:46.489Z,997.56
2019-02-10T06:11:56.295Z,997.6
2019-02-10T06:13:06.549Z,997.57
2019-02-10T06:14:16.605Z,997.62
2019-02-10T06:15:26.134Z,997.62
2019-02-10T06:16:36.241Z,997.63
2019-02-10T06:17:46.290Z,997.61
2019-02-10T06:18:56.390Z,997.61
2019-02-10T06:20:06.191Z,997.62
2019-02-10T06:21:15.983Z,997.67
2019-02-10T06:22:26.093Z,997.65
2019-02-10T06:23:36.155Z,997.68
2019-02-10T06:24:46.239Z,997.64
2019-02-10T06:25:56.043Z,997.61
2019-02-10T06:27:06.122Z,997.63
2019-02-10T06:28:15.684Z,997.64
2019-02-10T06:29:25.536Z,997.66
2019-02-10T06:30:35.596Z,997.65
2019-02-10T06:31:45.657Z,997.59
2019-02-10T06:32:55.717Z,997.58
2019-02-10T06:34:05.781Z,997.57
2019-02-10T06:35:15.573Z,997.57
2019-02-10T06:36:25.642Z,997.58
2019-02-10T06:37:35.716Z,997.57
2019-02-10T06:38:45.766Z,997.57
2019-02-10T06:39:55.818Z,997.51
2019-02-10T06:41:06.886Z,997.51
2019-02-10T06:42:18.049Z,997.55
2019-02-10T06:43:27.676Z,997.52
2019-02-10T06:44:37.484Z,997.48
2019-02-10T06:45:47.528Z,997.44
2019-02-10T06:46:57.073Z,997.44
2019-02-10T06:48:07.146Z,997.46
2019-02-10T06:49:17.199Z,997.39
2019-02-10T06:50:27.243Z,997.42
2019-02-10T06:51:37.293Z,997.47
2019-02-10T06:52:47.190Z,997.48
2019-02-10T06:53:57.239Z,997.43
2019-02-10T06:55:07.288Z,997.46
2019-02-10T06:56:17.338Z,997.4
2019-02-10T06:57:27.392Z,997.37
2019-02-10T06:58:37.183Z,997.32
2019-02-10T06:59:48.739Z,997.39
2019-02-10T07:00:58.827Z,997.34
2019-02-10T07:02:08.793Z,997.36
2019-02-10T07:03:18.599Z,997.38
2019-02-10T07:04:28.641Z,997.41
2019-02-10T07:05:38.418Z,997.37
2019-02-10T07:06:48.226Z,997.36
2019-02-10T07:07:58.276Z,997.35
2019-02-10T07:09:08.721Z,997.24
2019-02-10T07:10:18.795Z,997.2
2019-02-10T07:11:28.860Z,997.23
2019-02-10T07:12:38.912Z,997.17
2019-02-10T07:13:48.968Z,997.16
2019-02-10T07:14:58.557Z,997.19
2019-02-10T07:16:09.901Z,997.11
2019-02-10T07:17:19.680Z,997.11
2019-02-10T07:18:29.472Z,997.12
2019-02-10T07:19:39.253Z,997.13
2019-02-10T07:20:49.309Z,997.06
2019-02-10T07:21:59.342Z,997.05
2019-02-10T07:23:08.905Z,997.08
2019-02-10T07:24:18.711Z,997
2019-02-10T07:25:28.769Z,996.99
2019-02-10T07:26:38.863Z,996.99
2019-02-10T07:27:48.669Z,996.97
2019-02-10T07:28:58.720Z,996.9
2019-02-10T07:30:08.524Z,996.86
2019-02-10T07:31:18.326Z,996.84
2019-02-10T07:32:28.373Z,996.85
2019-02-10T07:33:38.418Z,996.79
2019-02-10T07:34:48.641Z,996.8
2019-02-10T07:35:58.795Z,996.82
2019-02-10T07:37:08.874Z,996.82
2019-02-10T07:38:18.704Z,996.83
2019-02-10T07:39:28.745Z,996.8
2019-02-10T07:40:38.557Z,996.73
2019-02-10T07:41:48.610Z,996.69
2019-02-10T07:42:58.689Z,996.67
2019-02-10T07:44:08.743Z,996.61
2019-02-10T07:45:18.801Z,996.63
2019-02-10T07:46:28.839Z,996.67
2019-02-10T07:47:38.930Z,996.72
2019-02-10T07:48:48.992Z,996.76
2019-02-10T07:49:59.107Z,996.79
2019-02-10T07:51:08.894Z,996.77
2019-02-10T07:52:18.960Z,996.79
2019-02-10T07:53:28.754Z,996.76
2019-02-10T07:54:42.218Z,996.76
2019-02-10T07:55:52.537Z,996.73
2019-02-10T07:57:02.580Z,996.68
2019-02-10T07:58:12.696Z,996.72
2019-02-10T07:59:22.825Z,996.72
2019-02-10T08:00:32.899Z,996.67
2019-02-10T08:01:42.951Z,996.66
2019-02-10T08:02:53.005Z,996.67
2019-02-10T08:04:02.827Z,996.66
2019-02-10T08:05:12.632Z,996.66
2019-02-10T08:06:22.433Z,996.65
2019-02-10T08:07:32.276Z,996.62
2019-02-10T08:08:46.543Z,996.54
2019-02-10T08:09:56.872Z,996.59
2019-02-10T08:11:06.926Z,996.52
2019-02-10T08:12:16.981Z,996.48
2019-02-10T08:13:27.036Z,996.48
2019-02-10T08:14:38.491Z,996.41
2019-02-10T08:15:48.553Z,996.33
2019-02-10T08:16:58.595Z,996.27
2019-02-10T08:18:09.409Z,996.3
2019-02-10T08:19:19.479Z,996.32
2019-02-10T08:20:29.287Z,996.33
2019-02-10T08:21:39.095Z,996.34
2019-02-10T08:22:49.146Z,996.35
2019-02-10T08:23:59.213Z,996.33
2019-02-10T08:25:09.351Z,996.23
2019-02-10T08:26:19.436Z,996.16
2019-02-10T08:27:29.536Z,996.15
2019-02-10T08:28:39.602Z,996.07
2019-02-10T08:29:49.679Z,996.08
2019-02-10T08:30:59.739Z,996.06
2019-02-10T08:32:09.800Z,996.05
2019-02-10T08:33:19.851Z,996
2019-02-10T08:34:29.927Z,995.95
2019-02-10T08:35:39.980Z,995.92
2019-02-10T08:36:50.042Z,995.86
2019-02-10T08:38:00.112Z,995.85
2019-02-10T08:39:10.165Z,995.81
2019-02-10T08:40:20.216Z,995.82
2019-02-10T08:41:30.280Z,995.81
2019-02-10T08:42:40.365Z,995.81
2019-02-10T08:43:50.471Z,995.76
2019-02-10T08:45:03.194Z,995.76
2019-02-10T08:46:13.289Z,995.72
2019-02-10T08:47:23.121Z,995.71
2019-02-10T08:48:41.356Z,995.73
2019-02-10T08:49:51.163Z,995.73
2019-02-10T08:51:00.962Z,995.7
2019-02-10T08:52:12.508Z,995.66
2019-02-10T08:53:22.566Z,995.62
2019-02-10T08:54:32.626Z,995.61
2019-02-10T08:55:42.700Z,995.6
2019-02-10T08:56:52.755Z,995.59
2019-02-10T08:58:02.797Z,995.52
2019-02-10T08:59:12.857Z,995.44
2019-02-10T09:00:23.031Z,995.36
2019-02-10T09:01:33.111Z,995.42
2019-02-10T09:02:43.162Z,995.32
2019-02-10T09:03:53.242Z,995.3
2019-02-10T09:05:05.217Z,995.33
2019-02-10T09:06:15.283Z,995.35
2019-02-10T09:07:25.101Z,995.35
2019-02-10T09:08:34.898Z,995.31
2019-02-10T09:09:44.974Z,995.25
2019-02-10T09:10:55.054Z,995.21
2019-02-10T09:12:05.121Z,995.25
2019-02-10T09:13:14.939Z,995.15
2019-02-10T09:14:25.030Z,995.22
2019-02-10T09:15:35.105Z,995.19
2019-02-10T09:16:45.158Z,995.27
2019-02-10T09:17:55.214Z,995.29
2019-02-10T09:19:05.283Z,995.29
2019-02-10T09:20:15.354Z,995.27
2019-02-10T09:21:25.439Z,995.32
2019-02-10T09:22:35.558Z,995.26
2019-02-10T09:23:45.630Z,995.3
2019-02-10T09:24:55.683Z,995.26
2019-02-10T09:26:05.762Z,995.21
2019-02-10T09:27:15.819Z,995.14
2019-02-10T09:28:25.110Z,995.06
2019-02-10T09:29:34.919Z,995.04
2019-02-10T09:30:44.998Z,995.06
2019-02-10T09:31:54.828Z,995.03
2019-02-10T09:33:05.393Z,994.97
2019-02-10T09:34:15.505Z,994.94
2019-02-10T09:35:25.593Z,994.93
2019-02-10T09:36:35.162Z,994.88
2019-02-10T09:37:45.001Z,994.87
2019-02-10T09:38:55.048Z,994.84
2019-02-10T09:40:11.494Z,994.85
2019-02-10T09:41:21.307Z,994.8
2019-02-10T09:42:31.405Z,994.82
2019-02-10T09:43:41.455Z,994.79
2019-02-10T09:44:51.525Z,994.74
2019-02-10T09:46:01.651Z,994.73
2019-02-10T09:47:11.500Z,994.75
2019-02-10T09:48:21.555Z,994.74
2019-02-10T09:49:31.624Z,994.69
2019-02-10T09:50:41.691Z,994.64
2019-02-10T09:51:51.505Z,994.63
2019-02-10T09:53:01.331Z,994.63
2019-02-10T09:54:11.390Z,994.57
2019-02-10T09:55:21.469Z,994.53
2019-02-10T09:56:31.538Z,994.52
2019-02-10T09:57:41.654Z,994.52
2019-02-10T09:58:51.730Z,994.49
2019-02-10T10:00:02.025Z,994.48
2019-02-10T10:01:12.505Z,994.45
2019-02-10T10:02:22.005Z,994.43
2019-02-10T10:03:31.870Z,994.37
2019-02-10T10:04:41.939Z,994.28
2019-02-10T10:05:51.548Z,994.22
2019-02-10T10:07:01.799Z,994.28
2019-02-10T10:08:11.585Z,994.21
2019-02-10T10:09:21.387Z,994.25
2019-02-10T10:10:31.454Z,994.23
2019-02-10T10:11:41.004Z,994.17
2019-02-10T10:12:51.060Z,994.17
2019-02-10T10:14:01.143Z,994.16
2019-02-10T10:15:11.226Z,994.17
2019-02-10T10:16:21.304Z,994.08
2019-02-10T10:17:31.379Z,994.14
2019-02-10T10:18:41.439Z,994.1
2019-02-10T10:19:51.521Z,994.08
2019-02-10T10:21:02.739Z,994.12
2019-02-10T10:22:12.784Z,994.09
2019-02-10T10:23:22.595Z,994.1
2019-02-10T10:24:32.651Z,994.14
2019-02-10T10:25:50.791Z,994.07
2019-02-10T10:27:00.859Z,994.06
2019-02-10T10:28:10.723Z,993.97
2019-02-10T10:29:20.836Z,993.86
2019-02-10T10:30:30.921Z,993.89
2019-02-10T10:31:41.026Z,993.82
2019-02-10T10:32:50.841Z,993.83
2019-02-10T10:34:00.935Z,993.8
2019-02-10T10:35:11.002Z,993.77
2019-02-10T10:36:20.560Z,993.79
2019-02-10T10:37:30.663Z,993.74
2019-02-10T10:38:40.829Z,993.7
2019-02-10T10:39:50.889Z,993.74
2019-02-10T10:41:03.033Z,993.61
2019-02-10T10:42:13.097Z,993.58
2019-02-10T10:43:22.876Z,993.51
2019-02-10T10:44:32.951Z,993.43
2019-02-10T10:45:42.771Z,993.43
2019-02-10T10:46:52.317Z,993.4
2019-02-10T10:48:02.373Z,993.31
2019-02-10T10:49:12.434Z,993.25
2019-02-10T10:50:22.507Z,993.27
2019-02-10T10:51:32.601Z,993.25
2019-02-10T10:52:44.609Z,993.22
2019-02-10T10:53:54.423Z,993.21
2019-02-10T10:55:04.246Z,993.21
2019-02-10T10:56:14.060Z,993.18
2019-02-10T10:57:25.186Z,993.11
2019-02-10T10:58:35.343Z,993.11
2019-02-10T10:59:45.398Z,993.07
2019-02-10T11:00:55.480Z,993.02
2019-02-10T11:02:05.292Z,993.01
2019-02-10T11:03:17.158Z,992.98
2019-02-10T11:04:27.157Z,992.97
2019-02-10T11:05:37.203Z,992.92
2019-02-10T11:06:47.005Z,992.94
2019-02-10T11:07:56.859Z,992.94
2019-02-10T11:09:06.692Z,992.93
2019-02-10T11:10:16.775Z,992.96
2019-02-10T11:11:26.615Z,992.85
2019-02-10T11:12:36.697Z,992.85
2019-02-10T11:13:46.514Z,992.8
2019-02-10T11:14:56.586Z,992.77
2019-02-10T11:16:06.814Z,992.66
2019-02-10T11:17:16.895Z,992.62
2019-02-10T11:18:27.008Z,992.6
2019-02-10T11:19:36.834Z,992.46
2019-02-10T11:20:46.678Z,992.4
2019-02-10T11:21:56.817Z,992.33
2019-02-10T11:23:06.899Z,992.3
2019-02-10T11:24:16.720Z,992.19
2019-02-10T11:25:34.013Z,992.04
2019-02-10T11:26:44.095Z,991.97
2019-02-10T11:27:53.999Z,991.95
2019-02-10T11:29:05.034Z,991.88
2019-02-10T11:30:15.225Z,991.85
2019-02-10T11:31:25.321Z,991.79
2019-02-10T11:32:35.381Z,991.77
2019-02-10T11:33:45.447Z,991.64
2019-02-10T11:34:55.535Z,991.52
2019-02-10T11:36:05.628Z,991.52
2019-02-10T11:37:15.751Z,991.44
2019-02-10T11:38:32.141Z,991.35
2019-02-10T11:39:43.724Z,991.25
2019-02-10T11:40:54.003Z,991.29
2019-02-10T11:42:03.580Z,991.25
2019-02-10T11:43:13.698Z,991.28
2019-02-10T11:44:23.742Z,991.27
2019-02-10T11:45:33.841Z,991.24
2019-02-10T11:46:43.967Z,991.18
2019-02-10T11:47:54.061Z,991.17
2019-02-10T11:49:05.111Z,991.1
2019-02-10T11:50:14.968Z,991.05
2019-02-10T11:51:24.835Z,990.99
2019-02-10T11:52:34.894Z,990.96
2019-02-10T11:53:44.945Z,991
2019-02-10T11:54:55.013Z,991.04
2019-02-10T11:56:04.829Z,990.97
2019-02-10T11:57:14.975Z,990.95
2019-02-10T11:58:25.035Z,990.93
2019-02-10T11:59:35.079Z,990.87
2019-02-10T12:00:45.169Z,990.86
2019-02-10T12:01:55.253Z,990.81
2019-02-10T12:03:05.336Z,990.81
2019-02-10T12:04:15.446Z,990.8
2019-02-10T12:05:25.530Z,990.68
2019-02-10T12:06:35.649Z,990.62
2019-02-10T12:07:45.740Z,990.56
2019-02-10T12:08:55.674Z,990.51
2019-02-10T12:10:05.772Z,990.51
2019-02-10T12:11:15.830Z,990.52
2019-02-10T12:12:25.965Z,990.43
2019-02-10T12:13:36.006Z,990.39
2019-02-10T12:14:48.048Z,990.35
2019-02-10T12:15:58.105Z,990.26
2019-02-10T12:17:07.894Z,990.27
2019-02-10T12:18:17.701Z,990.28
2019-02-10T12:19:27.517Z,990.19
2019-02-10T12:20:38.644Z,990.13
2019-02-10T12:21:48.728Z,990.08
2019-02-10T12:22:58.807Z,990.07
2019-02-10T12:24:08.881Z,990.08
2019-02-10T12:25:18.771Z,990
2019-02-10T12:26:28.880Z,989.96
2019-02-10T12:27:38.963Z,989.92
2019-02-10T12:28:48.526Z,989.91
2019-02-10T12:29:58.337Z,989.79
2019-02-10T12:31:10.970Z,989.74
2019-02-10T12:32:21.129Z,989.69
2019-02-10T12:33:30.936Z,989.6
2019-02-10T12:34:40.511Z,989.5
2019-02-10T12:35:57.977Z,989.47
2019-02-10T12:37:08.255Z,989.4
2019-02-10T12:38:18.355Z,989.37
2019-02-10T12:39:28.442Z,989.39
2019-02-10T12:40:38.529Z,989.32
2019-02-10T12:41:48.941Z,989.18
2019-02-10T12:42:59.010Z,989.15
2019-02-10T12:44:09.097Z,989.16
2019-02-10T12:45:18.910Z,989.08
2019-02-10T12:46:28.478Z,989.04
2019-02-10T12:47:38.563Z,988.97
2019-02-10T12:48:48.641Z,988.99
2019-02-10T12:49:58.530Z,989.03
2019-02-10T12:51:08.584Z,988.95
2019-02-10T12:52:18.429Z,988.93
2019-02-10T12:53:28.550Z,989.01
2019-02-10T12:54:38.613Z,989.01
2019-02-10T12:55:48.677Z,988.93
2019-02-10T12:56:58.495Z,988.95
2019-02-10T12:58:08.557Z,988.85
2019-02-10T12:59:18.385Z,988.88
2019-02-10T13:00:28.217Z,988.78
2019-02-10T13:01:38.492Z,988.78
2019-02-10T13:02:48.551Z,988.66
2019-02-10T13:03:58.652Z,988.67
2019-02-10T13:05:08.725Z,988.61
2019-02-10T13:06:18.285Z,988.67
2019-02-10T13:07:28.138Z,988.7
2019-02-10T13:08:38.190Z,988.67
2019-02-10T13:09:48.265Z,988.61
2019-02-10T13:10:58.338Z,988.61
2019-02-10T13:12:08.190Z,988.58
2019-02-10T13:13:19.448Z,988.52
2019-02-10T13:14:29.738Z,988.46
2019-02-10T13:15:39.595Z,988.47
2019-02-10T13:16:49.679Z,988.43
2019-02-10T13:17:59.802Z,988.44
2019-02-10T13:19:09.936Z,988.48
2019-02-10T13:20:19.999Z,988.43
2019-02-10T13:21:29.820Z,988.49
2019-02-10T13:22:39.938Z,988.4
2019-02-10T13:23:50.009Z,988.38
2019-02-10T13:25:00.287Z,988.4
2019-02-10T13:26:10.374Z,988.37
2019-02-10T13:27:20.453Z,988.31
2019-02-10T13:28:30.013Z,988.23
2019-02-10T13:29:40.074Z,988.2
2019-02-10T13:30:50.148Z,988.18
2019-02-10T13:32:00.337Z,988.19
2019-02-10T13:33:10.197Z,988.16
2019-02-10T13:34:20.312Z,988.09
2019-02-10T13:35:30.887Z,988.1
2019-02-10T13:36:40.986Z,988.02
2019-02-10T13:37:51.056Z,988.06
2019-02-10T13:39:02.359Z,988.04
2019-02-10T13:40:16.582Z,987.99
2019-02-10T13:41:26.842Z,987.96
2019-02-10T13:42:36.973Z,987.99
2019-02-10T13:43:47.068Z,987.94
2019-02-10T13:44:56.904Z,987.87
2019-02-10T13:46:07.141Z,987.82
2019-02-10T13:47:17.200Z,987.73
2019-02-10T13:48:27.009Z,987.66
2019-02-10T13:49:37.076Z,987.59
2019-02-10T13:50:46.883Z,987.53
2019-02-10T13:51:56.437Z,987.49
2019-02-10T13:53:06.555Z,987.47
2019-02-10T13:54:16.873Z,987.44
2019-02-10T13:55:27.011Z,987.39
2019-02-10T13:56:36.745Z,987.33
2019-02-10T13:57:46.603Z,987.38
2019-02-10T13:58:56.684Z,987.32
2019-02-10T14:00:06.706Z,987.23
2019-02-10T14:01:17.244Z,987.22
2019-02-10T14:02:27.106Z,987.25
2019-02-10T14:03:37.181Z,987.25
2019-02-10T14:04:47.006Z,987.23
2019-02-10T14:05:57.082Z,987.27
2019-02-10T14:07:08.421Z,987.25
2019-02-10T14:08:17.984Z,987.18
2019-02-10T14:09:28.091Z,987.12
2019-02-10T14:10:37.930Z,987.18
2019-02-10T14:11:49.330Z,987.14
2019-02-10T14:12:59.528Z,987.09
2019-02-10T14:14:09.636Z,987.08
2019-02-10T14:15:19.742Z,986.98
2019-02-10T14:16:29.863Z,986.95
2019-02-10T14:17:39.690Z,986.94
2019-02-10T14:18:49.801Z,986.86
2019-02-10T14:19:59.862Z,986.85
2019-02-10T14:21:09.704Z,986.84
2019-02-10T14:22:19.799Z,986.93
2019-02-10T14:23:29.873Z,986.86
2019-02-10T14:24:39.742Z,986.82
2019-02-10T14:25:49.832Z,986.81
2019-02-10T14:26:59.650Z,986.69
2019-02-10T14:28:10.541Z,986.66
2019-02-10T14:29:20.377Z,986.58
2019-02-10T14:30:30.456Z,986.53
2019-02-10T14:31:40.044Z,986.52
2019-02-10T14:32:49.900Z,986.45
2019-02-10T14:33:59.997Z,986.46
2019-02-10T14:35:12.923Z,986.44
2019-02-10T14:36:23.067Z,986.46
2019-02-10T14:37:32.925Z,986.45
2019-02-10T14:38:43.004Z,986.42
2019-02-10T14:39:53.108Z,986.44
2019-02-10T14:41:03.214Z,986.43
2019-02-10T14:42:13.357Z,986.43
2019-02-10T14:43:23.180Z,986.42
2019-02-10T14:44:33.257Z,986.42
2019-02-10T14:45:43.315Z,986.4
2019-02-10T14:46:53.145Z,986.38
2019-02-10T14:48:03.266Z,986.29
2019-02-10T14:49:13.377Z,986.23
2019-02-10T14:50:23.468Z,986.2
2019-02-10T14:51:34.137Z,986.15
2019-02-10T14:52:44.207Z,986.15
2019-02-10T14:53:54.285Z,986.1
2019-02-10T14:55:04.362Z,986.07
2019-02-10T14:56:14.447Z,986.04
2019-02-10T14:57:24.537Z,985.97
2019-02-10T14:58:34.363Z,985.92
2019-02-10T14:59:50.785Z,985.88
2019-02-10T15:01:01.586Z,985.86
2019-02-10T15:02:11.715Z,985.86
2019-02-10T15:03:21.534Z,985.83
2019-02-10T15:04:31.660Z,985.78
2019-02-10T15:05:41.731Z,985.78
2019-02-10T15:06:51.837Z,985.73
2019-02-10T15:08:01.922Z,985.61
2019-02-10T15:09:11.745Z,985.5
2019-02-10T15:10:21.548Z,985.38
2019-02-10T15:11:31.650Z,985.31
2019-02-10T15:12:41.725Z,985.28